createdAt,value
2023-03-19T00:03:58.352Z,49.28
2023-03-19T00:14:06.171Z,49.41
2023-03-19T00:24:13.688Z,49.57
2023-03-19T00:34:20.962Z,49.72
2023-03-19T00:44:28.099Z,49.83
2023-03-19T00:54:36.355Z,50.04
2023-03-19T01:04:44.038Z,50.43
2023-03-19T01:14:51.281Z,50.60
2023-03-19T01:24:58.486Z,50.65
2023-03-19T01:35:05.303Z,50.86
2023-03-19T01:45:38.967Z,51.09
2023-03-19T01:55:47.814Z,51.45
2023-03-19T02:05:56.579Z,51.70
2023-03-19T02:16:04.594Z,52.04
2023-03-19T02:26:13.714Z,52.19
2023-03-19T02:36:22.914Z,52.52
2023-03-19T02:46:30.373Z,52.92
2023-03-19T02:56:36.712Z,53.19
2023-03-19T03:06:43.785Z,53.47
2023-03-19T03:16:51.161Z,53.62
2023-03-19T03:26:58.453Z,53.84
2023-03-19T03:37:07.011Z,54.19
2023-03-19T03:47:14.892Z,55.02
2023-03-19T03:57:21.919Z,55.42
2023-03-19T04:07:29.290Z,55.65
2023-03-19T04:17:36.002Z,56.38
2023-03-19T04:27:43.215Z,56.61
2023-03-19T04:37:50.369Z,56.99
2023-03-19T04:47:58.346Z,57.27
2023-03-19T04:58:06.065Z,57.60
2023-03-19T05:08:13.786Z,58.13
2023-03-19T05:18:21.414Z,58.52
2023-03-19T05:28:28.341Z,59.02
2023-03-19T05:38:35.456Z,59.44
2023-03-19T05:48:42.534Z,59.05
2023-03-19T05:58:49.734Z,58.27
2023-03-19T06:08:56.633Z,57.40
2023-03-19T06:19:03.831Z,56.12
2023-03-19T06:29:11.023Z,54.99
2023-03-19T06:39:18.421Z,54.11
2023-03-19T06:49:25.831Z,53.38
2023-03-19T06:59:33.177Z,53.03
2023-03-19T07:09:40.839Z,52.37
2023-03-19T07:19:48.129Z,52.58
2023-03-19T07:29:54.407Z,52.83
2023-03-19T07:40:01.817Z,52.81
2023-03-19T07:50:10.949Z,52.66
2023-03-19T08:00:18.194Z,52.04
2023-03-19T08:10:25.700Z,51.76
2023-03-19T08:20:34.031Z,51.27
2023-03-19T08:30:41.622Z,50.36
2023-03-19T08:40:49.287Z,49.47
2023-03-19T08:50:55.026Z,48.71
2023-03-19T09:01:01.975Z,47.95
2023-03-19T09:11:08.353Z,47.60
2023-03-19T09:21:15.758Z,46.75
2023-03-19T09:31:22.878Z,45.95
2023-03-19T09:41:35.421Z,46.10
2023-03-19T09:51:42.456Z,46.02
2023-03-19T10:01:50.382Z,45.25
2023-03-19T10:11:59.740Z,45.26
2023-03-19T10:22:07.576Z,45.18
2023-03-19T10:32:15.416Z,44.85
2023-03-19T10:42:27.336Z,44.36
2023-03-19T10:52:35.056Z,44.11
2023-03-19T11:02:48.424Z,43.45
2023-03-19T11:23:00.455Z,42.04
2023-03-19T11:33:23.472Z,41.70
2023-03-19T11:43:48.384Z,42.08
2023-03-19T11:53:57.111Z,41.83
2023-03-19T12:04:23.540Z,42.00
2023-03-19T12:14:32.457Z,41.30
2023-03-19T12:24:40.194Z,40.79
2023-03-19T12:34:51.501Z,40.82
2023-03-19T12:45:01.331Z,40.09
2023-03-19T12:55:15.720Z,40.76
2023-03-19T13:05:23.414Z,39.78
2023-03-19T13:15:28.453Z,40.12
2023-03-19T13:25:40.817Z,39.57
2023-03-19T13:35:50.914Z,40.09
2023-03-19T13:46:25.590Z,40.41
2023-03-19T13:56:55.626Z,40.86
2023-03-19T14:07:11.430Z,41.04
2023-03-19T14:17:16.419Z,40.77
2023-03-19T14:27:24.949Z,40.99
2023-03-19T14:37:30.978Z,41.09
2023-03-19T14:47:44.078Z,41.51
2023-03-19T14:57:51.179Z,41.82
2023-03-19T15:07:58.000Z,41.84
2023-03-19T15:18:05.707Z,41.91
2023-03-19T15:28:14.637Z,42.22
2023-03-19T15:38:22.333Z,42.52
2023-03-19T15:48:36.820Z,42.60
2023-03-19T15:58:47.696Z,42.89
2023-03-19T16:08:57.085Z,43.18
2023-03-19T16:19:03.098Z,43.42
2023-03-19T16:29:09.833Z,43.71
2023-03-19T16:39:15.614Z,44.02
2023-03-19T16:49:22.787Z,44.39
2023-03-19T16:59:30.700Z,45.04
2023-03-19T17:09:38.244Z,45.56
2023-03-19T17:19:47.045Z,46.30
2023-03-19T17:29:54.192Z,46.96
2023-03-19T17:40:01.299Z,47.53
2023-03-19T17:50:15.036Z,48.29
2023-03-19T18:00:24.540Z,48.93
2023-03-19T18:10:33.493Z,49.73
2023-03-19T18:20:42.626Z,50.04
2023-03-19T18:30:49.694Z,50.75
2023-03-19T18:40:57.194Z,51.53
2023-03-19T18:51:04.497Z,51.88
2023-03-19T19:01:15.619Z,52.32
2023-03-19T19:11:24.227Z,52.88
2023-03-19T19:21:31.384Z,53.26
2023-03-19T19:41:43.925Z,54.18
2023-03-19T19:51:51.176Z,54.49
2023-03-19T20:01:58.930Z,54.60
2023-03-19T20:12:04.901Z,54.94
2023-03-19T20:22:12.228Z,55.53
2023-03-19T20:32:33.034Z,55.96
2023-03-19T20:42:41.628Z,56.22
2023-03-19T20:52:48.832Z,56.48
2023-03-19T21:02:58.155Z,56.88
2023-03-19T21:13:06.303Z,57.07
2023-03-19T21:23:11.792Z,57.41
2023-03-19T21:33:22.280Z,57.60
2023-03-19T21:43:28.031Z,58.18
2023-03-19T21:53:35.558Z,58.53
2023-03-19T22:03:43.083Z,58.61
2023-03-19T22:13:50.728Z,58.77
2023-03-19T22:23:58.109Z,58.94
2023-03-19T22:34:05.086Z,59.01
2023-03-19T22:54:20.702Z,59.52
2023-03-19T23:04:30.820Z,59.91
2023-03-19T23:14:38.081Z,60.15
2023-03-19T23:24:45.054Z,60.46
2023-03-19T23:35:00.504Z,60.81
2023-03-19T23:45:18.006Z,61.14
2023-03-19T23:55:25.447Z,61.46
